Terminal Aerodrome Forecast
Issued by NWS Austin/San Antonio, TX

Home | Current Version | Previous Version | Text Only | Print | Product List | Glossary On
Versions: 1 2 3 4 5 6 7 8 9 10 11 12 13 14 15 16 17 18 19 20 21 22 23 24 25 26
000
FTUS44 KEWX 031739
TAFSAT
TAF
KSAT 031739Z 0318/0424 17009KT P6SM SCT030 BKN040 BKN250
     FM040500 15008KT P6SM BKN012
     FM040900 15007KT 6SM BR BKN008
     FM041500 16010KT P6SM BKN015 BKN030
     FM041700 16012KT P6SM SCT035 SCT250=

USA.gov is the U.S. government's official web portal to all federal, state and local government web resources and services.